Time;durP1;ratioP1;P1;durP2;ratioP2;P2;SDS_P1;SDS_P2;PMS_P1;PMS_P2;Temp;Humidity;BMP_temperature;BMP_pressure;BME280_temperature;BME280_humidity;BME280_pressure;Samples;Min_cycle;Max_cycle;Signal;HPM_P1;HPM_P2
2021/04/15 00:01:46;;;;;;;10.75;5.40;;;1.70;99.90;;;;;;4892967;28;20028;-72
2021/04/15 00:04:12;;;;;;;12.73;5.70;;;1.70;99.90;;;;;;4957360;28;20025;-72
2021/04/15 00:06:38;;;;;;;11.18;6.47;;;1.70;99.90;;;;;;4893183;28;20040;-72
2021/04/15 00:09:09;;;;;;;12.30;6.15;;;1.80;99.90;;;;;;4893592;28;20039;-72
2021/04/15 00:11:35;;;;;;;11.82;6.38;;;1.80;99.90;;;;;;4892932;28;20025;-72
2021/04/15 00:14:04;;;;;;;10.13;5.68;;;1.90;99.90;;;;;;4893116;28;20484;-72
2021/04/15 00:16:31;;;;;;;12.52;6.15;;;2.00;99.90;;;;;;4893096;28;20036;-72
2021/04/15 00:18:57;;;;;;;14.48;6.22;;;2.10;99.90;;;;;;4892928;29;20399;-73
2021/04/15 00:21:23;;;;;;;11.90;5.95;;;2.20;99.90;;;;;;4893170;28;20059;-72
2021/04/15 00:23:49;;;;;;;9.50;5.38;;;2.30;99.90;;;;;;4893037;28;20068;-72
2021/04/15 00:26:16;;;;;;;9.48;5.72;;;2.30;99.90;;;;;;4892994;28;20060;-72
2021/04/15 00:28:42;;;;;;;10.02;6.03;;;2.30;99.90;;;;;;4892945;28;20075;-72
2021/04/15 00:31:08;;;;;;;12.43;6.03;;;2.30;99.90;;;;;;4957287;28;20052;-72
2021/04/15 00:33:34;;;;;;;9.80;5.55;;;2.30;99.90;;;;;;4892714;28;20079;-72
2021/04/15 00:36:00;;;;;;;9.10;5.63;;;2.30;99.90;;;;;;4892782;29;20033;-72
2021/04/15 00:38:27;;;;;;;11.95;5.88;;;2.20;99.90;;;;;;4892702;28;20040;-72
2021/04/15 00:40:54;;;;;;;10.18;5.80;;;2.20;99.90;;;;;;4892805;28;20040;-72
2021/04/15 00:43:22;;;;;;;12.18;5.65;;;2.10;99.90;;;;;;4892632;29;20498;-72
2021/04/15 00:45:48;;;;;;;11.60;6.13;;;2.10;99.90;;;;;;4892736;29;20387;-72
2021/04/15 00:48:16;;;;;;;10.85;6.30;;;2.10;99.90;;;;;;4959256;28;20036;-72
2021/04/15 00:50:52;;;;;;;10.75;5.97;;;2.00;99.90;;;;;;4896043;28;20032;-72
2021/04/15 00:53:27;;;;;;;9.73;5.53;;;2.00;99.90;;;;;;4895842;28;20027;-72
2021/04/15 00:55:53;;;;;;;12.18;6.88;;;2.10;99.90;;;;;;4961160;28;20213;-72
2021/04/15 00:58:19;;;;;;;11.65;7.15;;;2.20;99.90;;;;;;4961013;28;20636;-72
2021/04/15 01:00:45;;;;;;;14.90;7.72;;;2.10;99.90;;;;;;4960683;28;20040;-72
2021/04/15 01:03:10;;;;;;;14.25;6.25;;;2.30;99.90;;;;;;4960312;28;20395;-72
2021/04/15 01:05:45;;;;;;;11.68;6.00;;;2.20;99.90;;;;;;4895649;28;20391;-72
2021/04/15 01:08:11;;;;;;;11.68;5.95;;;2.10;99.90;;;;;;4895725;28;20036;-72
2021/04/15 01:10:40;;;;;;;12.13;6.45;;;2.10;99.90;;;;;;4895688;29;20036;-72
2021/04/15 01:13:46;;;;;;;15.03;6.70;;;2.10;99.90;;;;;;4895389;29;20099;-72
2021/04/15 01:16:27;;;;;;;12.82;5.93;;;1.90;99.90;;;;;;4895660;28;20025;-73
2021/04/15 01:19:30;;;;;;;12.45;6.38;;;1.90;99.90;;;;;;4960309;28;20036;-72
2021/04/15 01:22:00;;;;;;;11.57;6.18;;;1.90;99.90;;;;;;4895053;29;20129;-72
2021/04/15 01:24:31;;;;;;;12.73;6.22;;;1.90;99.90;;;;;;4895429;28;20035;-72
2021/04/15 01:27:21;;;;;;;14.88;7.30;;;1.80;99.90;;;;;;4895486;28;20032;-72
2021/04/15 01:30:04;;;;;;;13.05;7.40;;;1.70;99.90;;;;;;4960076;28;20047;-72
2021/04/15 01:32:34;;;;;;;13.02;7.25;;;1.70;99.90;;;;;;4895181;29;20086;-72
2021/04/15 01:35:11;;;;;;;11.73;6.43;;;1.70;99.90;;;;;;4960042;28;20290;-72
2021/04/15 01:37:51;;;;;;;13.90;7.20;;;1.70;99.90;;;;;;4959938;28;20033;-72
2021/04/15 01:40:25;;;;;;;14.77;7.68;;;1.70;99.90;;;;;;4960243;28;20567;-72
2021/04/15 01:43:03;;;;;;;14.55;7.47;;;1.80;99.90;;;;;;4959757;28;20048;-72
2021/04/15 01:45:30;;;;;;;17.58;8.93;;;1.80;99.90;;;;;;4895346;28;20033;-72
2021/04/15 01:48:01;;;;;;;15.75;8.30;;;1.90;99.90;;;;;;4894883;28;20040;-72
2021/04/15 01:50:35;;;;;;;14.88;8.25;;;1.90;99.90;;;;;;4895178;28;20036;-72
2021/04/15 01:53:08;;;;;;;18.77;9.02;;;2.00;99.90;;;;;;4959441;28;20024;-72
2021/04/15 01:55:47;;;;;;;15.80;9.10;;;2.10;99.90;;;;;;4895042;28;20039;-72
2021/04/15 01:58:31;;;;;;;16.67;8.93;;;2.20;99.90;;;;;;4894902;28;20033;-72
2021/04/15 02:01:01;;;;;;;15.10;8.30;;;2.20;99.90;;;;;;4894385;28;20400;-73
2021/04/15 02:03:30;;;;;;;15.77;8.60;;;2.20;99.90;;;;;;4894420;28;20025;-72
2021/04/15 02:05:59;;;;;;;16.42;9.45;;;2.20;99.90;;;;;;4895043;28;20021;-72
2021/04/15 02:08:32;;;;;;;14.35;8.55;;;2.20;99.90;;;;;;4959376;28;20033;-72
2021/04/15 02:11:09;;;;;;;16.77;9.20;;;2.20;99.90;;;;;;4894970;28;20028;-72
2021/04/15 02:13:37;;;;;;;17.38;8.85;;;2.20;99.90;;;;;;4959288;28;20032;-72
2021/04/15 02:16:12;;;;;;;15.52;9.35;;;2.10;99.90;;;;;;4959212;28;20029;-72
2021/04/15 02:18:40;;;;;;;16.67;9.43;;;2.10;99.90;;;;;;4959404;28;20032;-72
2021/04/15 02:21:31;;;;;;;17.95;9.57;;;2.00;99.90;;;;;;4894583;28;20029;-72
2021/04/15 02:24:15;;;;;;;16.15;9.68;;;2.00;99.90;;;;;;4913626;29;20044;-72
2021/04/15 02:26:42;;;;;;;15.43;8.55;;;2.00;99.90;;;;;;4894572;28;20066;-72
2021/04/15 02:29:16;;;;;;;17.83;9.23;;;2.00;99.90;;;;;;4958865;28;20055;-72
2021/04/15 02:32:01;;;;;;;14.85;9.45;;;2.00;99.90;;;;;;4958854;28;20029;-72
2021/04/15 02:34:39;;;;;;;15.80;8.10;;;2.00;99.90;;;;;;4894487;28;20040;-72
2021/04/15 02:37:11;;;;;;;17.42;9.45;;;2.00;99.90;;;;;;4894436;28;20024;-72
2021/04/15 02:39:43;;;;;;;15.43;8.13;;;1.90;99.90;;;;;;4894476;28;20079;-72
2021/04/15 02:42:14;;;;;;;15.30;8.25;;;2.10;99.90;;;;;;4958876;28;20036;-72
2021/04/15 02:44:48;;;;;;;15.75;8.80;;;2.10;99.90;;;;;;4893595;28;20193;-72
2021/04/15 02:47:39;;;;;;;15.25;8.38;;;2.10;99.90;;;;;;4958805;28;20029;-72
2021/04/15 02:50:12;;;;;;;13.70;8.30;;;2.20;99.90;;;;;;4894218;28;20039;-72
2021/04/15 02:52:41;;;;;;;15.40;8.15;;;2.10;99.90;;;;;;4893809;28;20029;-72
2021/04/15 02:55:12;;;;;;;15.13;7.95;;;2.10;99.90;;;;;;4894112;28;20039;-72
2021/04/15 02:58:01;;;;;;;14.00;8.05;;;2.10;99.90;;;;;;4958699;28;20052;-72
2021/04/15 03:00:32;;;;;;;16.85;8.32;;;2.10;99.90;;;;;;4894102;28;20092;-72
2021/04/15 03:03:11;;;;;;;13.77;7.95;;;2.10;99.90;;;;;;4893864;28;20115;-72
2021/04/15 03:05:43;;;;;;;13.35;7.50;;;2.00;99.90;;;;;;4894046;28;20083;-72
2021/04/15 03:08:12;;;;;;;12.85;7.55;;;1.90;99.90;;;;;;4893889;28;20035;-72
2021/04/15 03:10:48;;;;;;;17.77;7.68;;;1.90;99.90;;;;;;4958523;28;20075;-72
2021/04/15 03:13:28;;;;;;;15.60;8.57;;;1.80;99.90;;;;;;4893595;28;20043;-72
2021/04/15 03:15:59;;;;;;;13.85;8.15;;;1.80;99.90;;;;;;4958512;28;20036;-72
2021/04/15 03:18:33;;;;;;;14.60;8.55;;;1.90;99.90;;;;;;4893703;28;20036;-72
2021/04/15 03:21:17;;;;;;;14.38;8.52;;;1.80;99.90;;;;;;4894108;28;20056;-72
2021/04/15 03:23:55;;;;;;;13.80;8.60;;;2.00;99.90;;;;;;4893800;28;20087;-73
2021/04/15 03:26:36;;;;;;;16.63;8.05;;;1.90;99.90;;;;;;4894224;29;20040;-72
2021/04/15 03:29:18;;;;;;;15.13;8.73;;;1.90;99.90;;;;;;4893767;28;20091;-72
2021/04/15 03:31:55;;;;;;;15.45;8.70;;;1.90;99.90;;;;;;4958067;28;20029;-73
2021/04/15 03:34:31;;;;;;;18.13;9.68;;;2.00;99.90;;;;;;4893873;28;20036;-72
2021/04/15 03:36:57;;;;;;;16.30;8.80;;;2.10;99.90;;;;;;4958552;28;20043;-73
2021/04/15 03:39:30;;;;;;;14.98;8.32;;;2.00;99.90;;;;;;4893736;29;20079;-72
2021/04/15 03:42:01;;;;;;;16.48;8.55;;;2.00;99.90;;;;;;4893493;29;20033;-73
2021/04/15 03:44:42;;;;;;;16.92;8.80;;;2.00;99.90;;;;;;4893739;28;20392;-72
2021/04/15 03:47:20;;;;;;;19.42;9.73;;;2.00;99.90;;;;;;4893444;28;20029;-72
2021/04/15 03:49:48;;;;;;;15.80;8.75;;;2.10;99.90;;;;;;4893348;28;20116;-72
2021/04/15 03:52:28;;;;;;;17.23;9.07;;;2.00;99.90;;;;;;4957727;28;20396;-72
2021/04/15 03:55:18;;;;;;;18.52;8.35;;;2.10;99.90;;;;;;4893447;28;20499;-72
2021/04/15 03:57:45;;;;;;;22.27;10.15;;;2.30;99.90;;;;;;4893359;28;20040;-72
2021/04/15 04:00:16;;;;;;;19.77;10.38;;;2.20;99.90;;;;;;4893011;28;20539;-72
2021/04/15 04:02:46;;;;;;;17.90;10.13;;;2.20;99.90;;;;;;4897344;29;20040;-72
2021/04/15 04:05:22;;;;;;;19.33;9.38;;;2.20;99.90;;;;;;4912023;29;20388;-72
2021/04/15 04:08:02;;;;;;;21.20;8.95;;;2.20;99.90;;;;;;4977151;28;20021;-72
2021/04/15 04:10:38;;;;;;;18.38;9.85;;;2.10;99.90;;;;;;4912025;28;20364;-72
2021/04/15 04:13:27;;;;;;;17.80;10.02;;;2.00;99.90;;;;;;4976630;28;20546;-72
2021/04/15 04:16:26;;;;;;;19.15;10.23;;;2.00;99.90;;;;;;4911834;29;20390;-72
2021/04/15 04:19:09;;;;;;;18.80;10.10;;;2.10;99.90;;;;;;4976943;28;20027;-72
2021/04/15 04:21:50;;;;;;;21.08;9.75;;;2.20;99.90;;;;;;4911665;29;20110;-72
2021/04/15 04:24:44;;;;;;;18.00;9.65;;;2.10;99.90;;;;;;4914961;28;20032;-73
2021/04/15 04:27:16;;;;;;;20.88;10.18;;;2.30;99.90;;;;;;4915257;28;20020;-71
2021/04/15 04:30:06;;;;;;;15.88;9.15;;;2.30;99.90;;;;;;4915046;29;20467;-71
2021/04/15 04:32:32;;;;;;;;;;;2.40;99.90;;;;;;4915118;28;20078;-71
2021/04/15 04:35:00;;;;;;;23.13;11.85;;;2.30;99.90;;;;;;4914968;29;20302;-71
2021/04/15 04:37:39;;;;;;;21.02;11.02;;;2.40;99.90;;;;;;4914998;29;20140;-72
2021/04/15 04:40:16;;;;;;;62.50;30.73;;;2.30;99.90;;;;;;4897594;29;20033;-75
2021/04/15 04:42:52;;;;;;;21.17;10.23;;;2.40;99.90;;;;;;4895971;29;20029;-73
2021/04/15 04:45:19;;;;;;;18.80;9.60;;;2.50;99.90;;;;;;4896134;29;20403;-73
2021/04/15 04:48:11;;;;;;;24.27;14.57;;;2.60;99.90;;;;;;4895933;29;20789;-73
2021/04/15 04:50:50;;;;;;;23.45;10.55;;;2.60;99.90;;;;;;4960987;28;20124;-73
2021/04/15 04:53:32;;;;;;;20.75;11.38;;;2.60;99.90;;;;;;4895721;29;20484;-73
2021/04/15 04:56:16;;;;;;;20.02;11.80;;;2.50;99.90;;;;;;4895946;29;20056;-73
2021/04/15 04:58:52;;;;;;;21.35;11.30;;;2.60;99.90;;;;;;4895478;29;20039;-73
2021/04/15 05:01:18;;;;;;;21.08;10.05;;;2.60;99.90;;;;;;4895854;28;20028;-73
2021/04/15 05:03:43;;;;;;;20.52;9.93;;;2.70;99.90;;;;;;4895707;28;20095;-73
2021/04/15 05:06:18;;;;;;;20.75;10.68;;;2.90;99.90;;;;;;4895849;28;20021;-73
2021/04/15 05:09:18;;;;;;;23.20;11.52;;;2.90;99.90;;;;;;4960590;28;20029;-73
2021/04/15 05:11:49;;;;;;;21.75;10.30;;;3.00;99.90;;;;;;4894778;29;20040;-73
2021/04/15 05:14:18;;;;;;;40.10;14.32;;;3.00;99.90;;;;;;4895561;28;20044;-73
2021/04/15 05:16:55;;;;;;;19.35;9.65;;;3.00;99.90;;;;;;4895728;28;20036;-72
2021/04/15 05:19:20;;;;;;;26.58;11.30;;;3.00;99.90;;;;;;4895933;28;20079;-73
2021/04/15 05:21:48;;;;;;;54.53;20.27;;;3.00;99.90;;;;;;4960116;28;20423;-74
2021/04/15 05:24:19;;;;;;;20.08;9.35;;;3.00;99.90;;;;;;4895389;28;20169;-73
2021/04/15 05:26:46;;;;;;;18.20;9.20;;;3.20;99.90;;;;;;4960394;28;20051;-74
2021/04/15 05:29:19;;;;;;;18.08;10.60;;;3.20;99.90;;;;;;4895395;28;20024;-74
2021/04/15 05:31:47;;;;;;;17.52;9.90;;;3.10;99.90;;;;;;4895258;28;20040;-74
2021/04/15 05:34:26;;;;;;;21.08;11.70;;;3.10;99.90;;;;;;4895336;28;20542;-74
2021/04/15 05:36:55;;;;;;;25.23;11.63;;;3.20;99.90;;;;;;4895512;28;20055;-74
2021/04/15 05:39:21;;;;;;;21.20;12.77;;;3.40;99.90;;;;;;4895327;28;20113;-74
2021/04/15 05:41:50;;;;;;;21.10;10.43;;;3.50;99.90;;;;;;4959934;28;20459;-73
2021/04/15 05:44:41;;;;;;;22.05;10.68;;;3.80;99.90;;;;;;4894949;29;20024;-74
2021/04/15 05:47:33;;;;;;;17.23;9.75;;;4.00;99.90;;;;;;4895365;29;20476;-73
2021/04/15 05:50:10;;;;;;;21.75;10.27;;;4.30;99.90;;;;;;4959838;28;20029;-73
2021/04/15 05:52:43;;;;;;;16.25;9.05;;;4.30;99.90;;;;;;4894919;28;20531;-73
2021/04/15 05:55:13;;;;;;;15.85;8.88;;;4.30;99.90;;;;;;4895126;28;20028;-74
2021/04/15 05:57:46;;;;;;;16.55;9.98;;;4.30;99.90;;;;;;4960119;28;20149;-75
2021/04/15 06:00:23;;;;;;;18.42;9.13;;;4.50;99.90;;;;;;4895250;28;20087;-74
2021/04/15 06:03:22;;;;;;;18.75;8.38;;;4.40;99.90;;;;;;4886102;28;20089;-74
2021/04/15 06:06:06;;;;;;;21.40;9.95;;;4.30;99.90;;;;;;4936605;29;20442;-73
2021/04/15 06:08:38;;;;;;;20.25;9.15;;;4.30;99.90;;;;;;4952734;28;20031;-73
2021/04/15 06:11:27;;;;;;;16.63;8.77;;;4.40;99.90;;;;;;4952480;29;20462;-74
2021/04/15 06:14:00;;;;;;;18.38;9.85;;;4.60;99.90;;;;;;4952380;29;20027;-73
2021/04/15 06:16:35;;;;;;;16.17;9.13;;;4.70;99.90;;;;;;4936017;29;20414;-74
2021/04/15 06:19:17;;;;;;;13.57;7.70;;;4.70;99.90;;;;;;4935065;29;20027;-74
2021/04/15 06:22:23;;;;;;;15.07;6.72;;;4.90;99.90;;;;;;4952119;29;20031;-74
2021/04/15 06:24:53;;;;;;;10.75;6.47;;;5.00;99.90;;;;;;4876366;29;20519;-74
2021/04/15 06:27:20;;;;;;;12.75;7.03;;;5.00;99.90;;;;;;4860973;29;20155;-74
2021/04/15 06:30:15;;;;;;;12.10;6.72;;;5.00;99.90;;;;;;4876121;29;20037;-75
2021/04/15 06:32:49;;;;;;;13.65;6.35;;;5.10;99.90;;;;;;4869923;29;20129;-74
2021/04/15 06:35:34;;;;;;;14.43;5.82;;;5.10;99.90;;;;;;4860499;29;20132;-74
2021/04/15 06:38:24;;;;;;;12.73;6.15;;;5.40;99.40;;;;;;4876112;29;20033;-74
2021/04/15 06:41:02;;;;;;;12.93;6.53;;;5.60;98.10;;;;;;4876032;29;20029;-74
2021/04/15 06:43:45;;;;;;;11.02;5.47;;;5.90;98.70;;;;;;4857205;29;20109;-74
2021/04/15 06:46:41;;;;;;;9.70;5.10;;;6.20;98.90;;;;;;4841499;29;20396;-74
2021/04/15 06:49:15;;;;;;;12.95;5.43;;;6.30;97.20;;;;;;4841886;29;20065;-74
2021/04/15 06:51:52;;;;;;;10.82;5.15;;;6.40;97.10;;;;;;4841708;29;20080;-74
2021/04/15 06:54:58;;;;;;;11.00;5.25;;;6.40;95.80;;;;;;4857297;29;20041;-75
2021/04/15 06:57:43;;;;;;;12.65;4.97;;;6.40;97.00;;;;;;4884387;29;20041;-75
2021/04/15 07:00:33;;;;;;;9.02;4.35;;;6.40;97.00;;;;;;4884756;29;20067;-74
2021/04/15 07:03:13;;;;;;;10.00;4.68;;;6.30;95.70;;;;;;4966183;28;20029;-74
2021/04/15 07:05:48;;;;;;;9.73;4.38;;;6.10;95.60;;;;;;4963834;28;20033;-74
2021/04/15 07:09:01;;;;;;;9.85;4.80;;;6.10;95.90;;;;;;4965787;28;20028;-75
2021/04/15 07:11:41;;;;;;;9.32;4.63;;;5.90;95.60;;;;;;4966356;28;20504;-75
2021/04/15 07:14:23;;;;;;;9.75;4.45;;;5.90;96.10;;;;;;4901138;29;20064;-74
2021/04/15 07:17:25;;;;;;;7.57;3.97;;;6.00;96.60;;;;;;4966424;28;20039;-74
2021/04/15 07:20:18;;;;;;;8.23;3.97;;;5.90;94.60;;;;;;4964413;28;20071;-74
2021/04/15 07:23:09;;;;;;;9.45;3.97;;;5.70;93.50;;;;;;4901944;29;20079;-74
2021/04/15 07:25:57;;;;;;;8.80;4.18;;;5.60;95.00;;;;;;4967629;28;20403;-74
2021/04/15 07:28:55;;;;;;;8.40;4.15;;;5.60;95.70;;;;;;4987376;28;20062;-74
2021/04/15 07:31:33;;;;;;;8.05;4.13;;;5.70;95.90;;;;;;4909294;29;20506;-75
2021/04/15 07:34:24;;;;;;;11.25;5.00;;;5.90;96.20;;;;;;4962423;28;20041;-74
2021/04/15 07:37:18;;;;;;;8.90;4.60;;;6.00;95.30;;;;;;4905745;28;20110;-74
2021/04/15 07:40:21;;;;;;;14.00;4.72;;;6.20;95.00;;;;;;4966522;28;20039;-74
2021/04/15 07:42:59;;;;;;;6.78;2.83;;;6.20;96.20;;;;;;4885897;28;20063;-74
2021/04/15 07:45:30;;;;;;;10.57;3.90;;;6.40;92.00;;;;;;4901862;29;20028;-75
2021/04/15 07:48:17;;;;;;;18.88;3.88;;;6.20;93.60;;;;;;4902927;28;20396;-75
2021/04/15 07:51:15;;;;;;;9.73;3.95;;;6.30;93.40;;;;;;4901914;28;20028;-75
2021/04/15 07:53:59;;;;;;;9.65;3.30;;;6.30;94.10;;;;;;4901621;28;20025;-74
2021/04/15 07:57:02;;;;;;;6.32;2.85;;;6.40;92.60;;;;;;4900560;28;20035;-75
2021/04/15 07:59:50;;;;;;;9.27;3.28;;;6.40;91.60;;;;;;4897716;29;20112;-75
2021/04/15 08:02:40;;;;;;;6.30;2.88;;;6.40;92.30;;;;;;4893132;28;20428;-75
2021/04/15 08:05:30;;;;;;;6.65;2.58;;;6.50;92.20;;;;;;4902007;29;20024;-75
2021/04/15 08:08:17;;;;;;;6.80;3.13;;;6.60;90.30;;;;;;4901484;28;20048;-75
2021/04/15 08:11:12;;;;;;;7.57;2.90;;;6.70;91.90;;;;;;4901811;28;20377;-74
2021/04/15 08:13:49;;;;;;;5.55;2.40;;;6.80;90.50;;;;;;4896448;28;20541;-74
2021/04/15 08:16:36;;;;;;;6.68;2.33;;;6.70;89.50;;;;;;4901374;29;20028;-75
2021/04/15 08:19:32;;;;;;;6.10;2.70;;;6.80;90.50;;;;;;4908308;29;20541;-75
2021/04/15 08:22:20;;;;;;;11.52;2.80;;;7.10;91.30;;;;;;4910859;28;20025;-75
2021/04/15 08:25:04;;;;;;;6.82;3.05;;;7.20;91.00;;;;;;4961638;28;20486;-75
2021/04/15 08:27:33;;;;;;;15.32;4.55;;;7.40;91.60;;;;;;4964900;28;20631;-75
2021/04/15 08:30:34;;;;;;;6.47;2.90;;;7.50;91.00;;;;;;4966232;28;20012;-75
2021/04/15 08:33:25;;;;;;;7.45;3.42;;;7.70;84.90;;;;;;4898943;29;20021;-75
2021/04/15 08:36:24;;;;;;;6.93;2.78;;;7.60;90.90;;;;;;4901588;28;20415;-75
2021/04/15 08:39:14;;;;;;;12.85;4.38;;;7.60;91.70;;;;;;4897827;29;20043;-74
2021/04/15 08:41:58;;;;;;;7.75;3.20;;;7.90;93.00;;;;;;4892557;29;20079;-75
2021/04/15 08:44:46;;;;;;;5.32;2.40;;;8.20;90.00;;;;;;4892695;28;20041;-75
2021/04/15 08:47:12;;;;;;;6.07;2.58;;;8.30;86.20;;;;;;4892705;28;20087;-75
2021/04/15 08:50:05;;;;;;;10.52;5.43;;;8.40;86.40;;;;;;4899538;28;20060;-74
2021/04/15 08:52:44;;;;;;;6.40;3.10;;;8.50;84.40;;;;;;4963785;28;20029;-75
2021/04/15 08:55:35;;;;;;;6.68;2.90;;;8.40;87.20;;;;;;4963724;28;20095;-74
2021/04/15 08:58:26;;;;;;;5.80;2.60;;;8.30;83.20;;;;;;4901451;28;20571;-75
2021/04/15 09:01:02;;;;;;;10.35;2.85;;;8.60;85.40;;;;;;4899411;29;20053;-74
2021/04/15 09:03:55;;;;;;;6.25;2.42;;;8.90;86.20;;;;;;4899530;29;20051;-74
2021/04/15 09:06:46;;;;;;;9.38;3.83;;;8.80;83.40;;;;;;4900143;29;20419;-74
2021/04/15 09:09:20;;;;;;;9.02;3.53;;;8.80;81.20;;;;;;4904106;29;20040;-75
2021/04/15 09:12:01;;;;;;;7.35;3.50;;;8.80;81.80;;;;;;4900905;29;20666;-75
2021/04/15 09:14:35;;;;;;;6.78;2.75;;;9.30;84.70;;;;;;4900853;29;20511;-75
2021/04/15 09:17:14;;;;;;;7.10;2.28;;;9.40;79.70;;;;;;4902820;29;20731;-74
2021/04/15 09:19:48;;;;;;;5.72;2.05;;;9.50;80.20;;;;;;4902939;28;20048;-74
2021/04/15 09:22:32;;;;;;;5.50;2.35;;;9.40;73.70;;;;;;4970657;28;20044;-75
2021/04/15 09:25:07;;;;;;;5.68;2.35;;;9.50;77.40;;;;;;4969155;28;20021;-74
2021/04/15 09:28:08;;;;;;;6.43;3.00;;;9.30;76.80;;;;;;4902415;28;20056;-75
2021/04/15 09:30:54;;;;;;;6.18;2.35;;;9.50;77.90;;;;;;4902595;29;20028;-75
2021/04/15 09:33:45;;;;;;;6.60;2.50;;;9.70;78.50;;;;;;4903820;28;20039;-74
2021/04/15 09:36:52;;;;;;;8.35;2.58;;;9.80;76.80;;;;;;4912844;29;20043;-74
2021/04/15 09:39:47;;;;;;;6.00;2.65;;;9.80;79.40;;;;;;4881962;28;20122;-74
2021/04/15 09:42:37;;;;;;;6.07;2.42;;;9.70;69.70;;;;;;4894759;29;20476;-75
2021/04/15 09:45:11;;;;;;;3.92;1.70;;;9.50;74.20;;;;;;4889487;28;20037;-74
2021/04/15 09:47:58;;;;;;;4.50;1.73;;;9.70;73.90;;;;;;4950264;28;20040;-75
2021/04/15 09:50:46;;;;;;;7.88;1.92;;;9.70;70.50;;;;;;4882916;29;20037;-75
2021/04/15 09:53:19;;;;;;;5.88;2.60;;;9.90;71.10;;;;;;4949854;28;20060;-75
2021/04/15 09:56:00;;;;;;;6.57;2.17;;;10.20;71.80;;;;;;4883071;29;20111;-75
2021/04/15 09:58:40;;;;;;;6.88;1.95;;;10.40;75.50;;;;;;4885174;28;20439;-75
2021/04/15 10:01:13;;;;;;;;;;;10.60;72.40;;;;;;4882579;29;20064;-75
2021/04/15 10:04:13;;;;;;;4.80;1.65;;;10.60;65.70;;;;;;4948536;28;19908;-75
2021/04/15 10:06:47;;;;;;;7.93;3.40;;;10.80;61.30;;;;;;4885186;28;20033;-74
2021/04/15 10:09:23;;;;;;;4.25;1.42;;;10.30;60.40;;;;;;4892322;28;20384;-74
2021/04/15 10:12:04;;;;;;;8.10;2.75;;;10.10;66.00;;;;;;4875007;29;20477;-74
2021/04/15 10:14:40;;;;;;;;;;;10.30;63.10;;;;;;4875917;29;20029;-74
2021/04/15 10:17:21;;;;;;;2.97;1.38;;;10.30;63.40;;;;;;4875188;29;19908;-74
2021/04/15 10:20:07;;;;;;;5.57;1.58;;;10.40;65.00;;;;;;4874470;29;20029;-74
2021/04/15 10:22:54;;;;;;;4.72;1.65;;;10.50;64.00;;;;;;4939089;28;20068;-74
2021/04/15 10:25:29;;;;;;;4.00;1.92;;;10.80;62.00;;;;;;4874989;29;20032;-74
2021/04/15 10:28:22;;;;;;;5.15;1.88;;;11.10;61.70;;;;;;4875020;29;20080;-74
2021/04/15 10:31:07;;;;;;;4.53;1.60;;;11.30;62.40;;;;;;4875049;28;20024;-74
2021/04/15 10:34:09;;;;;;;5.28;2.00;;;11.50;59.10;;;;;;4875208;28;20032;-74
2021/04/15 10:36:38;;;;;;;5.40;1.70;;;11.20;58.30;;;;;;4875195;28;20035;-74
2021/04/15 10:39:20;;;;;;;3.83;1.58;;;11.00;60.90;;;;;;4874811;29;20021;-74
2021/04/15 10:42:06;;;;;;;3.40;1.33;;;11.00;54.10;;;;;;4874653;29;20025;-74
2021/04/15 10:44:47;;;;;;;4.78;1.33;;;11.10;58.50;;;;;;4938954;28;20480;-74
2021/04/15 10:47:24;;;;;;;2.63;1.20;;;11.30;56.50;;;;;;4939026;29;20025;-74
2021/04/15 10:49:55;;;;;;;3.50;1.67;;;11.20;51.30;;;;;;4874753;28;20027;-74
2021/04/15 10:52:35;;;;;;;5.65;2.10;;;10.90;54.80;;;;;;4874458;29;20036;-74
2021/04/15 10:55:14;;;;;;;4.10;1.40;;;10.90;54.60;;;;;;4874838;28;20056;-74
2021/04/15 10:57:40;;;;;;;4.82;1.27;;;11.00;55.50;;;;;;4940366;28;20044;-74
2021/04/15 11:00:33;;;;;;;3.10;1.23;;;11.10;54.90;;;;;;4942153;28;535849;-74
2021/04/15 11:03:20;;;;;;;6.53;1.77;;;11.30;52.40;;;;;;4912619;28;20024;-74
2021/04/15 11:05:49;;;;;;;4.45;1.95;;;11.50;56.90;;;;;;4965984;28;20025;-74
2021/04/15 11:08:24;;;;;;;5.57;1.42;;;11.50;55.10;;;;;;4893901;28;20457;-74
2021/04/15 11:11:07;;;;;;;4.18;1.40;;;11.70;53.50;;;;;;4894069;28;20028;-74
2021/04/15 11:13:33;;;;;;;6.40;1.58;;;11.70;51.70;;;;;;4893649;28;20036;-74
2021/04/15 11:16:01;;;;;;;4.30;1.65;;;11.90;49.50;;;;;;4893874;28;20025;-73
2021/04/15 11:18:31;;;;;;;4.47;1.40;;;11.70;50.50;;;;;;4893779;28;20017;-72
2021/04/15 11:21:24;;;;;;;3.67;1.27;;;11.40;48.00;;;;;;4893837;28;20052;-72
2021/04/15 11:23:52;;;;;;;4.65;2.00;;;11.20;52.10;;;;;;4893626;28;20025;-73
2021/04/15 11:26:44;;;;;;;4.65;1.65;;;11.30;54.50;;;;;;4892284;29;20112;-73
2021/04/15 11:29:28;;;;;;;3.35;1.40;;;11.40;52.20;;;;;;4893535;28;20020;-73
2021/04/15 11:31:55;;;;;;;4.47;1.48;;;11.60;51.60;;;;;;4957535;28;20499;-73
2021/04/15 11:34:24;;;;;;;3.58;1.42;;;11.50;51.40;;;;;;4893269;28;20048;-73
2021/04/15 11:36:58;;;;;;;5.38;1.35;;;11.40;52.30;;;;;;4893181;28;20028;-73
2021/04/15 11:39:27;;;;;;;3.85;1.60;;;11.50;53.10;;;;;;4957902;28;20036;-72
2021/04/15 11:41:56;;;;;;;4.55;1.90;;;11.40;53.10;;;;;;4893197;28;20488;-73
2021/04/15 11:44:45;;;;;;;4.38;1.58;;;11.60;53.20;;;;;;4893268;28;20029;-73
2021/04/15 11:47:30;;;;;;;4.47;1.60;;;11.70;54.70;;;;;;4893383;28;20031;-73
2021/04/15 11:50:23;;;;;;;6.32;1.70;;;11.70;55.60;;;;;;4957713;28;20032;-73
2021/04/15 11:52:53;;;;;;;5.75;1.60;;;12.00;53.30;;;;;;4893125;28;20033;-73
2021/04/15 11:55:26;;;;;;;8.30;1.70;;;12.10;52.20;;;;;;4893365;28;20078;-73
2021/04/15 11:57:55;;;;;;;6.75;2.33;;;12.00;55.30;;;;;;4893253;29;20035;-72
2021/04/15 12:00:36;;;;;;;4.47;1.73;;;12.00;55.00;;;;;;4893288;28;20534;-73
2021/04/15 12:03:01;;;;;;;;;;;11.30;49.50;;;;;;4893594;28;20037;-73
2021/04/15 12:05:31;;;;;;;3.65;1.42;;;11.00;51.20;;;;;;4892982;29;20022;-72
2021/04/15 12:08:07;;;;;;;9.93;2.60;;;11.00;50.80;;;;;;4893157;28;20048;-72
2021/04/15 12:10:37;;;;;;;478.33;207.38;;;11.00;49.30;;;;;;4892970;28;20025;-73
2021/04/15 12:13:12;;;;;;;5.03;2.10;;;11.30;52.60;;;;;;4892903;28;20033;-73
2021/04/15 12:15:45;;;;;;;13.65;4.90;;;11.60;52.80;;;;;;4957409;28;20087;-73
2021/04/15 12:18:25;;;;;;;6.93;2.00;;;11.70;48.30;;;;;;4892892;28;20036;-73
2021/04/15 12:21:22;;;;;;;4.85;1.40;;;11.70;50.60;;;;;;4893341;28;20228;-73
2021/04/15 12:24:07;;;;;;;3.35;1.50;;;11.30;48.20;;;;;;4877258;29;20492;-73
2021/04/15 12:26:51;;;;;;;3.17;1.52;;;11.00;54.60;;;;;;4893276;29;20483;-72
2021/04/15 12:29:19;;;;;;;4.28;1.83;;;10.90;53.70;;;;;;4893052;29;20028;-72
2021/04/15 12:32:01;;;;;;;4.93;1.60;;;11.20;51.30;;;;;;4892842;29;20460;-73
2021/04/15 12:34:54;;;;;;;3.15;1.55;;;11.40;50.80;;;;;;4892870;29;20498;-72
2021/04/15 12:37:28;;;;;;;3.03;1.42;;;11.80;51.70;;;;;;4893172;29;20039;-73
2021/04/15 12:40:27;;;;;;;7.32;1.70;;;12.30;46.30;;;;;;4892893;29;20028;-73
2021/04/15 12:42:56;;;;;;;5.18;1.25;;;12.50;48.90;;;;;;4876955;29;20164;-73
2021/04/15 12:45:37;;;;;;;2.90;1.30;;;12.30;50.20;;;;;;4896592;29;20048;-73
2021/04/15 12:48:04;;;;;;;6.57;1.65;;;12.10;50.10;;;;;;4896667;29;20087;-73
2021/04/15 12:50:31;;;;;;;3.88;1.40;;;11.80;46.60;;;;;;4881034;29;20085;-73
2021/04/15 12:52:58;;;;;;;6.50;1.77;;;11.60;52.10;;;;;;4896411;29;20092;-71
2021/04/15 12:55:26;;;;;;;8.82;1.67;;;11.80;49.00;;;;;;4896725;29;20431;-72
2021/04/15 12:57:52;;;;;;;4.45;1.40;;;12.00;46.10;;;;;;4907155;29;20509;-73
2021/04/15 13:00:33;;;;;;;3.85;1.48;;;12.10;49.50;;;;;;4895007;29;20067;-73
2021/04/15 13:03:19;;;;;;;6.93;2.17;;;12.20;50.10;;;;;;4876980;29;20053;-72
2021/04/15 13:06:07;;;;;;;4.65;1.63;;;11.90;49.50;;;;;;4877183;28;20120;-73
2021/04/15 13:08:33;;;;;;;5.72;1.73;;;11.40;49.90;;;;;;4877280;29;20083;-72
2021/04/15 13:11:01;;;;;;;3.85;1.42;;;11.30;51.30;;;;;;4941622;28;20116;-73
2021/04/15 13:13:48;;;;;;;4.68;1.52;;;11.10;47.60;;;;;;4941273;29;20112;-73
2021/04/15 13:16:32;;;;;;;6.22;1.85;;;11.30;51.40;;;;;;4941262;29;20029;-72
2021/04/15 13:19:24;;;;;;;3.55;1.50;;;11.90;50.90;;;;;;4941256;28;20029;-73
2021/04/15 13:22:07;;;;;;;4.30;1.63;;;12.40;48.10;;;;;;4876941;28;20025;-72
2021/04/15 13:24:48;;;;;;;3.97;1.42;;;12.80;49.20;;;;;;4876772;29;20044;-73
2021/04/15 13:27:36;;;;;;;3.40;1.40;;;12.80;47.00;;;;;;4941460;29;20388;-72
2021/04/15 13:30:19;;;;;;;3.33;1.38;;;13.00;47.10;;;;;;4876837;28;20029;-73
2021/04/15 13:33:10;;;;;;;5.32;1.70;;;13.50;48.50;;;;;;4876559;29;20555;-73
2021/04/15 13:35:35;;;;;;;;;;;13.90;48.30;;;;;;4877063;29;20164;-73
2021/04/15 13:38:01;;;;;;;6.38;2.00;;;13.50;47.60;;;;;;4951041;28;20417;-72
2021/04/15 13:40:34;;;;;;;6.00;2.20;;;12.40;49.60;;;;;;4903241;28;20553;-72
2021/04/15 13:43:49;;;;;;;4.05;1.90;;;11.70;52.40;;;;;;4900631;29;20521;-72
2021/04/15 13:46:23;;;;;;;10.70;1.83;;;11.00;53.70;;;;;;4912966;29;20048;-72
2021/04/15 13:49:07;;;;;;;5.68;1.83;;;10.70;56.60;;;;;;4913649;29;20505;-72